sensor_id;sensor_type;location;lat;lon;timestamp;pressure;altitude;pressure_sealevel;temperature;humidity
34983;BME280;21187;50.976;13.720;2023-05-10T00:03:39;97772.13;;;15.07;37.55
34983;BME280;21187;50.976;13.720;2023-05-10T00:08:41;97767.84;;;15.03;37.64
34983;BME280;21187;50.976;13.720;2023-05-10T00:13:43;97759.66;;;14.99;37.64
34983;BME280;21187;50.976;13.720;2023-05-10T00:18:45;97758.09;;;14.87;38.03
34983;BME280;21187;50.976;13.720;2023-05-10T00:23:47;97753.81;;;14.83;37.95
34983;BME280;21187;50.976;13.720;2023-05-10T00:28:49;97753.41;;;14.80;38.17
34983;BME280;21187;50.976;13.720;2023-05-10T00:33:52;97741.72;;;14.76;38.04
34983;BME280;21187;50.976;13.720;2023-05-10T00:38:54;97742.50;;;14.73;38.30
34983;BME280;21187;50.976;13.720;2023-05-10T00:43:56;97737.03;;;14.70;38.62
34983;BME280;21187;50.976;13.720;2023-05-10T00:48:58;97734.69;;;14.61;38.56
34983;BME280;21187;50.976;13.720;2023-05-10T00:54:00;97733.50;;;14.51;38.69
34983;BME280;21187;50.976;13.720;2023-05-10T00:59:02;97728.44;;;14.50;38.99
34983;BME280;21187;50.976;13.720;2023-05-10T01:04:04;97726.88;;;14.48;39.24
34983;BME280;21187;50.976;13.720;2023-05-10T01:09:06;97731.94;;;14.46;38.89
34983;BME280;21187;50.976;13.720;2023-05-10T01:14:08;97722.94;;;14.42;38.95
34983;BME280;21187;50.976;13.720;2023-05-10T01:19:26;97710.09;;;14.36;39.04
34983;BME280;21187;50.976;13.720;2023-05-10T01:46:00;97689.44;;;14.13;39.39
34983;BME280;21187;50.976;13.720;2023-05-10T01:51:01;97694.47;;;14.07;39.61
34983;BME280;21187;50.976;13.720;2023-05-10T01:56:04;97696.41;;;14.00;39.56
34983;BME280;21187;50.976;13.720;2023-05-10T02:01:08;97692.88;;;13.92;39.83
34983;BME280;21187;50.976;13.720;2023-05-10T02:06:12;97695.19;;;13.90;39.74
34983;BME280;21187;50.976;13.720;2023-05-10T02:11:17;97692.84;;;13.88;39.84
34983;BME280;21187;50.976;13.720;2023-05-10T02:16:23;97687.38;;;13.81;39.91
34983;BME280;21187;50.976;13.720;2023-05-10T02:21:28;97678.78;;;13.72;40.14
34983;BME280;21187;50.976;13.720;2023-05-10T02:26:32;97677.22;;;13.67;40.58
34983;BME280;21187;50.976;13.720;2023-05-10T02:31:36;97679.53;;;13.65;40.72
34983;BME280;21187;50.976;13.720;2023-05-10T02:36:40;97669.03;;;13.60;40.61
34983;BME280;21187;50.976;13.720;2023-05-10T02:41:45;97659.28;;;13.59;40.75
34983;BME280;21187;50.976;13.720;2023-05-10T02:46:48;97669.03;;;13.60;40.61
34983;BME280;21187;50.976;13.720;2023-05-10T02:51:56;97662.00;;;13.55;40.78
34983;BME280;21187;50.976;13.720;2023-05-10T02:57:04;97662.75;;;13.48;40.90
34983;BME280;21187;50.976;13.720;2023-05-10T03:02:07;97667.00;;;13.42;41.26
34983;BME280;21187;50.976;13.720;2023-05-10T03:07:10;97681.34;;;13.39;41.44
34983;BME280;21187;50.976;13.720;2023-05-10T03:12:39;97672.03;;;13.40;41.57
34983;BME280;21187;50.976;13.720;2023-05-10T03:17:54;97673.19;;;13.39;41.54
34983;BME280;21187;50.976;13.720;2023-05-10T03:23:04;97672.81;;;13.37;41.59
34983;BME280;21187;50.976;13.720;2023-05-10T03:28:07;97673.16;;;13.36;41.86
34983;BME280;21187;50.976;13.720;2023-05-10T03:33:10;97668.53;;;13.36;41.72
34983;BME280;21187;50.976;13.720;2023-05-10T03:38:15;97666.53;;;13.33;41.58
34983;BME280;21187;50.976;13.720;2023-05-10T03:43:17;97671.25;;;13.36;41.85
34983;BME280;21187;50.976;13.720;2023-05-10T03:48:19;97678.59;;;13.36;41.89
34983;BME280;21187;50.976;13.720;2023-05-10T03:53:21;97681.28;;;13.32;42.41
34983;BME280;21187;50.976;13.720;2023-05-10T03:58:24;97684.84;;;13.36;41.79
34983;BME280;21187;50.976;13.720;2023-05-10T04:03:26;97691.50;;;13.42;42.07
34983;BME280;21187;50.976;13.720;2023-05-10T04:08:28;97685.28;;;13.45;41.72
34983;BME280;21187;50.976;13.720;2023-05-10T04:13:31;97688.41;;;13.51;42.01
34983;BME280;21187;50.976;13.720;2023-05-10T04:18:33;97675.22;;;13.53;41.72
34983;BME280;21187;50.976;13.720;2023-05-10T04:23:34;97677.97;;;13.57;42.19
34983;BME280;21187;50.976;13.720;2023-05-10T04:28:36;97669.81;;;13.64;42.21
34983;BME280;21187;50.976;13.720;2023-05-10T04:33:38;97692.78;;;13.70;42.32
34983;BME280;21187;50.976;13.720;2023-05-10T04:38:40;97689.31;;;13.77;42.21
34983;BME280;21187;50.976;13.720;2023-05-10T04:43:42;97678.09;;;13.86;42.24
34983;BME280;21187;50.976;13.720;2023-05-10T04:48:44;97670.69;;;13.93;42.33
34983;BME280;21187;50.976;13.720;2023-05-10T04:53:46;97673.47;;;14.01;42.34
34983;BME280;21187;50.976;13.720;2023-05-10T04:59:05;97665.69;;;14.10;42.02
34983;BME280;21187;50.976;13.720;2023-05-10T05:04:07;97666.91;;;14.23;42.00
34983;BME280;21187;50.976;13.720;2023-05-10T05:09:09;97669.25;;;14.32;41.97
34983;BME280;21187;50.976;13.720;2023-05-10T05:14:11;97664.59;;;14.47;42.01
34983;BME280;21187;50.976;13.720;2023-05-10T05:19:13;97673.53;;;14.62;41.77
34983;BME280;21187;50.976;13.720;2023-05-10T05:24:15;97671.66;;;14.73;41.48
34983;BME280;21187;50.976;13.720;2023-05-10T05:29:17;97676.31;;;14.91;41.62
34983;BME280;21187;50.976;13.720;2023-05-10T05:34:19;97670.06;;;15.05;41.14
34983;BME280;21187;50.976;13.720;2023-05-10T05:39:22;97680.16;;;15.22;40.89
34983;BME280;21187;50.976;13.720;2023-05-10T05:44:24;97674.69;;;15.37;40.94
34983;BME280;21187;50.976;13.720;2023-05-10T05:49:26;97673.06;;;15.54;40.80
34983;BME280;21187;50.976;13.720;2023-05-10T05:54:28;97669.91;;;15.66;40.78
34983;BME280;21187;50.976;13.720;2023-05-10T05:59:30;97672.19;;;15.82;40.43
34983;BME280;21187;50.976;13.720;2023-05-10T06:04:32;97681.50;;;15.99;40.28
34983;BME280;21187;50.976;13.720;2023-05-10T06:09:34;97696.22;;;16.16;40.18
34983;BME280;21187;50.976;13.720;2023-05-10T06:14:36;97705.44;;;16.40;40.07
34983;BME280;21187;50.976;13.720;2023-05-10T06:19:38;97704.53;;;16.61;39.82
34983;BME280;21187;50.976;13.720;2023-05-10T06:24:40;97691.13;;;16.82;39.61
34983;BME280;21187;50.976;13.720;2023-05-10T06:29:42;97701.97;;;16.96;39.25
34983;BME280;21187;50.976;13.720;2023-05-10T06:34:43;97704.91;;;17.20;39.25
34983;BME280;21187;50.976;13.720;2023-05-10T06:39:46;97709.28;;;17.48;39.06
34983;BME280;21187;50.976;13.720;2023-05-10T06:44:48;97707.56;;;17.65;38.60
34983;BME280;21187;50.976;13.720;2023-05-10T06:49:49;97699.47;;;17.85;38.37
34983;BME280;21187;50.976;13.720;2023-05-10T06:54:52;97702.31;;;18.12;38.20
34983;BME280;21187;50.976;13.720;2023-05-10T06:59:54;97705.16;;;18.33;37.72
34983;BME280;21187;50.976;13.720;2023-05-10T07:04:57;97703.41;;;18.46;37.66
34983;BME280;21187;50.976;13.720;2023-05-10T07:10:03;97702.44;;;18.60;37.56
34983;BME280;21187;50.976;13.720;2023-05-10T07:15:06;97703.03;;;18.71;37.24
34983;BME280;21187;50.976;13.720;2023-05-10T07:20:09;97712.25;;;18.85;37.21
34983;BME280;21187;50.976;13.720;2023-05-10T07:25:11;97701.78;;;19.03;36.77
34983;BME280;21187;50.976;13.720;2023-05-10T07:30:14;97701.78;;;19.03;36.96
34983;BME280;21187;50.976;13.720;2023-05-10T07:35:16;97711.31;;;19.19;36.60
34983;BME280;21187;50.976;13.720;2023-05-10T07:40:19;97711.19;;;19.26;36.40
34983;BME280;21187;50.976;13.720;2023-05-10T07:45:21;97713.19;;;19.45;36.43
34983;BME280;21187;50.976;13.720;2023-05-10T07:50:23;97714.19;;;19.55;36.11
34983;BME280;21187;50.976;13.720;2023-05-10T07:55:25;97706.03;;;19.72;36.11
34983;BME280;21187;50.976;13.720;2023-05-10T08:00:27;97699.69;;;19.95;35.66
34983;BME280;21187;50.976;13.720;2023-05-10T08:05:29;97705.09;;;20.19;35.54
34983;BME280;21187;50.976;13.720;2023-05-10T08:10:31;97701.53;;;20.38;35.33
34983;BME280;21187;50.976;13.720;2023-05-10T08:15:34;97706.53;;;20.60;35.21
34983;BME280;21187;50.976;13.720;2023-05-10T08:20:36;97715.59;;;20.77;35.04
34983;BME280;21187;50.976;13.720;2023-05-10T08:25:37;97705.53;;;20.70;35.12
34983;BME280;21187;50.976;13.720;2023-05-10T08:30:39;97720.16;;;20.84;34.90
34983;BME280;21187;50.976;13.720;2023-05-10T08:35:41;97719.13;;;20.94;34.53
34983;BME280;21187;50.976;13.720;2023-05-10T08:40:44;97723.44;;;20.95;34.64
34983;BME280;21187;50.976;13.720;2023-05-10T08:45:46;97730.16;;;21.10;34.50
34983;BME280;21187;50.976;13.720;2023-05-10T08:50:53;97735.03;;;21.19;34.40
34983;BME280;21187;50.976;13.720;2023-05-10T08:56:00;97738.81;;;21.25;34.14
34983;BME280;21187;50.976;13.720;2023-05-10T09:01:03;97737.69;;;21.39;34.24
34983;BME280;21187;50.976;13.720;2023-05-10T09:06:05;97744.78;;;21.70;33.93
34983;BME280;21187;50.976;13.720;2023-05-10T09:11:09;97746.75;;;21.69;33.73
34983;BME280;21187;50.976;13.720;2023-05-10T09:16:11;97753.78;;;21.87;33.82
34983;BME280;21187;50.976;13.720;2023-05-10T09:21:21;97761.41;;;21.96;33.75
34983;BME280;21187;50.976;13.720;2023-05-10T09:26:23;97756.72;;;22.22;33.64
34983;BME280;21187;50.976;13.720;2023-05-10T09:36:55;97749.50;;;22.54;33.43
34983;BME280;21187;50.976;13.720;2023-05-10T09:41:59;97763.31;;;22.54;33.27
34983;BME280;21187;50.976;13.720;2023-05-10T09:47:03;97763.09;;;22.61;33.25
34983;BME280;21187;50.976;13.720;2023-05-10T09:52:07;97772.13;;;22.49;33.06
34983;BME280;21187;50.976;13.720;2023-05-10T09:57:19;97772.25;;;22.58;33.16
34983;BME280;21187;50.976;13.720;2023-05-10T10:02:28;97760.34;;;22.61;32.97
34983;BME280;21187;50.976;13.720;2023-05-10T10:07:31;97760.00;;;22.72;33.14
34983;BME280;21187;50.976;13.720;2023-05-10T10:12:33;97764.97;;;22.64;33.01
34983;BME280;21187;50.976;13.720;2023-05-10T10:17:36;97757.91;;;22.63;33.29
34983;BME280;21187;50.976;13.720;2023-05-10T10:22:39;97757.69;;;22.70;33.15
34983;BME280;21187;50.976;13.720;2023-05-10T10:33:06;97756.16;;;22.69;33.07
34983;BME280;21187;50.976;13.720;2023-05-10T10:38:54;97757.03;;;22.66;33.10
34983;BME280;21187;50.976;13.720;2023-05-10T10:49:25;97777.78;;;22.58;33.32
34983;BME280;21187;50.976;13.720;2023-05-10T10:54:28;97773.25;;;22.64;33.31
34983;BME280;21187;50.976;13.720;2023-05-10T10:59:30;97773.81;;;22.59;33.12
34983;BME280;21187;50.976;13.720;2023-05-10T11:04:41;97761.56;;;22.73;33.10
34983;BME280;21187;50.976;13.720;2023-05-10T11:09:46;97757.47;;;22.77;33.12
34983;BME280;21187;50.976;13.720;2023-05-10T11:14:51;97770.28;;;22.71;33.48
34983;BME280;21187;50.976;13.720;2023-05-10T11:20:09;97770.59;;;22.86;33.16
34983;BME280;21187;50.976;13.720;2023-05-10T11:25:12;97791.47;;;22.74;32.97
34983;BME280;21187;50.976;13.720;2023-05-10T11:30:14;97786.06;;;22.45;32.87
34983;BME280;21187;50.976;13.720;2023-05-10T11:35:17;97788.09;;;22.28;33.44
34983;BME280;21187;50.976;13.720;2023-05-10T11:40:18;97779.38;;;22.30;33.42
34983;BME280;21187;50.976;13.720;2023-05-10T11:45:24;97774.56;;;22.47;33.42
34983;BME280;21187;50.976;13.720;2023-05-10T11:50:26;97775.13;;;22.80;32.92
34983;BME280;21187;50.976;13.720;2023-05-10T11:55:28;97776.78;;;23.03;32.49
34983;BME280;21187;50.976;13.720;2023-05-10T12:00:32;97774.56;;;23.11;32.50
34983;BME280;21187;50.976;13.720;2023-05-10T12:05:34;97776.44;;;23.27;32.18
34983;BME280;21187;50.976;13.720;2023-05-10T12:10:37;97797.84;;;23.36;32.18
34983;BME280;21187;50.976;13.720;2023-05-10T12:15:39;97800.41;;;23.30;31.89
34983;BME280;21187;50.976;13.720;2023-05-10T12:20:41;97800.31;;;23.21;32.15
34983;BME280;21187;50.976;13.720;2023-05-10T12:25:43;97797.78;;;23.14;32.10
34983;BME280;21187;50.976;13.720;2023-05-10T12:30:44;97810.47;;;22.98;31.95
34983;BME280;21187;50.976;13.720;2023-05-10T12:35:51;97803.41;;;22.97;31.77
34983;BME280;21187;50.976;13.720;2023-05-10T12:40:53;97806.25;;;23.06;31.46
34983;BME280;21187;50.976;13.720;2023-05-10T12:45:56;97811.13;;;23.02;31.52
34983;BME280;21187;50.976;13.720;2023-05-10T12:50:58;97811.59;;;23.14;31.43
34983;BME280;21187;50.976;13.720;2023-05-10T12:56:00;97817.88;;;23.27;31.43
34983;BME280;21187;50.976;13.720;2023-05-10T13:01:02;97819.09;;;23.26;31.36
34983;BME280;21187;50.976;13.720;2023-05-10T13:06:05;97827.38;;;23.26;31.24
34983;BME280;21187;50.976;13.720;2023-05-10T13:11:07;97831.47;;;23.34;31.15
34983;BME280;21187;50.976;13.720;2023-05-10T13:16:09;97823.06;;;23.38;31.04
34983;BME280;21187;50.976;13.720;2023-05-10T13:21:11;97828.84;;;23.31;31.00
34983;BME280;21187;50.976;13.720;2023-05-10T13:26:13;97822.16;;;23.41;30.85
34983;BME280;21187;50.976;13.720;2023-05-10T13:31:15;97816.34;;;23.26;31.10
34983;BME280;21187;50.976;13.720;2023-05-10T13:36:17;97815.53;;;23.38;31.02
34983;BME280;21187;50.976;13.720;2023-05-10T13:41:19;97815.53;;;23.38;30.93
34983;BME280;21187;50.976;13.720;2023-05-10T13:46:22;97815.72;;;23.57;30.76
34983;BME280;21187;50.976;13.720;2023-05-10T13:51:25;97814.50;;;23.58;30.61
34983;BME280;21187;50.976;13.720;2023-05-10T13:56:27;97811.97;;;23.51;30.35
34983;BME280;21187;50.976;13.720;2023-05-10T14:01:29;97809.53;;;23.53;30.61
34983;BME280;21187;50.976;13.720;2023-05-10T14:06:31;97807.75;;;23.59;30.39
34983;BME280;21187;50.976;13.720;2023-05-10T14:11:33;97810.19;;;23.57;30.65
34983;BME280;21187;50.976;13.720;2023-05-10T14:16:35;97800.44;;;23.65;30.63
34983;BME280;21187;50.976;13.720;2023-05-10T14:21:37;97793.47;;;23.60;30.58
34983;BME280;21187;50.976;13.720;2023-05-10T14:26:39;97803.13;;;23.56;30.98
34983;BME280;21187;50.976;13.720;2023-05-10T14:31:41;97791.28;;;23.55;30.50
34983;BME280;21187;50.976;13.720;2023-05-10T14:36:43;97800.69;;;23.58;30.70
34983;BME280;21187;50.976;13.720;2023-05-10T14:41:45;97791.66;;;23.45;30.73
34983;BME280;21187;50.976;13.720;2023-05-10T14:46:48;97788.59;;;23.30;30.92
34983;BME280;21187;50.976;13.720;2023-05-10T14:51:51;97781.06;;;23.30;30.99
34983;BME280;21187;50.976;13.720;2023-05-10T14:56:53;97795.88;;;23.36;30.73
34983;BME280;21187;50.976;13.720;2023-05-10T15:01:55;97794.97;;;23.39;31.01
34983;BME280;21187;50.976;13.720;2023-05-10T15:06:57;97807.94;;;23.30;32.23
34983;BME280;21187;50.976;13.720;2023-05-10T15:12:01;97810.25;;;23.05;33.73
34983;BME280;21187;50.976;13.720;2023-05-10T15:17:03;97805.41;;;22.84;34.23
34983;BME280;21187;50.976;13.720;2023-05-10T15:22:05;97808.94;;;22.71;34.78
34983;BME280;21187;50.976;13.720;2023-05-10T15:27:07;97811.78;;;22.55;35.25
34983;BME280;21187;50.976;13.720;2023-05-10T15:32:09;97821.66;;;22.39;35.70
34983;BME280;21187;50.976;13.720;2023-05-10T15:37:11;97830.56;;;22.01;36.82
34983;BME280;21187;50.976;13.720;2023-05-10T15:42:12;97823.78;;;21.60;37.05
34983;BME280;21187;50.976;13.720;2023-05-10T15:47:14;97824.78;;;21.17;37.43
34983;BME280;21187;50.976;13.720;2023-05-10T15:52:16;97829.44;;;21.03;37.54
34983;BME280;21187;50.976;13.720;2023-05-10T15:57:19;97831.66;;;20.92;37.96
34983;BME280;21187;50.976;13.720;2023-05-10T16:02:21;97824.22;;;20.72;38.50
34983;BME280;21187;50.976;13.720;2023-05-10T16:07:24;97839.19;;;20.71;38.53
34983;BME280;21187;50.976;13.720;2023-05-10T16:12:25;97840.50;;;20.63;38.88
34983;BME280;21187;50.976;13.720;2023-05-10T16:17:27;97832.59;;;20.65;38.77
34983;BME280;21187;50.976;13.720;2023-05-10T16:22:29;97839.19;;;20.71;38.76
34983;BME280;21187;50.976;13.720;2023-05-10T16:27:31;97836.63;;;20.81;38.48
34983;BME280;21187;50.976;13.720;2023-05-10T16:32:34;97847.13;;;21.02;38.20
34983;BME280;21187;50.976;13.720;2023-05-10T16:37:36;97850.44;;;21.14;38.14
34983;BME280;21187;50.976;13.720;2023-05-10T16:42:38;97853.88;;;21.01;38.26
34983;BME280;21187;50.976;13.720;2023-05-10T16:47:40;97855.94;;;20.97;38.39
34983;BME280;21187;50.976;13.720;2023-05-10T16:52:42;97865.22;;;21.03;38.16
34983;BME280;21187;50.976;13.720;2023-05-10T16:57:44;97868.41;;;21.02;38.10
34983;BME280;21187;50.976;13.720;2023-05-10T17:02:46;97869.50;;;20.88;38.55
34983;BME280;21187;50.976;13.720;2023-05-10T17:07:49;97880.41;;;20.91;38.42
34983;BME280;21187;50.976;13.720;2023-05-10T17:12:51;97884.47;;;21.03;38.08
34983;BME280;21187;50.976;13.720;2023-05-10T17:17:54;97872.13;;;21.11;37.89
34983;BME280;21187;50.976;13.720;2023-05-10T17:22:56;97880.66;;;21.17;38.32
34983;BME280;21187;50.976;13.720;2023-05-10T17:27:58;97885.03;;;21.15;38.54
34983;BME280;21187;50.976;13.720;2023-05-10T17:33:00;97888.56;;;21.15;38.71
34983;BME280;21187;50.976;13.720;2023-05-10T17:38:02;97897.25;;;21.14;38.94
34983;BME280;21187;50.976;13.720;2023-05-10T17:43:04;97906.00;;;21.08;39.10
34983;BME280;21187;50.976;13.720;2023-05-10T17:48:06;97906.00;;;21.08;39.16
34983;BME280;21187;50.976;13.720;2023-05-10T17:53:08;97910.81;;;21.04;39.14
34983;BME280;21187;50.976;13.720;2023-05-10T17:58:10;97910.19;;;20.97;39.48
34983;BME280;21187;50.976;13.720;2023-05-10T18:03:12;97915.88;;;20.89;39.50
34983;BME280;21187;50.976;13.720;2023-05-10T18:08:14;97912.13;;;20.80;39.70
34983;BME280;21187;50.976;13.720;2023-05-10T18:13:17;97924.19;;;20.66;40.28
34983;BME280;21187;50.976;13.720;2023-05-10T18:18:19;97924.41;;;20.55;40.51
34983;BME280;21187;50.976;13.720;2023-05-10T18:23:21;97930.88;;;20.44;40.77
34983;BME280;21187;50.976;13.720;2023-05-10T18:28:24;97931.00;;;20.37;40.84
34983;BME280;21187;50.976;13.720;2023-05-10T18:33:26;97928.50;;;20.23;41.09
34983;BME280;21187;50.976;13.720;2023-05-10T18:38:28;97929.50;;;20.13;41.44
34983;BME280;21187;50.976;13.720;2023-05-10T18:43:30;97937.91;;;20.02;41.47
34983;BME280;21187;50.976;13.720;2023-05-10T18:48:32;97945.88;;;19.96;41.61
34983;BME280;21187;50.976;13.720;2023-05-10T18:53:34;97945.16;;;19.92;41.67
34983;BME280;21187;50.976;13.720;2023-05-10T18:58:35;97945.25;;;19.85;41.94
34983;BME280;21187;50.976;13.720;2023-05-10T19:03:37;97958.25;;;19.81;41.91
34983;BME280;21187;50.976;13.720;2023-05-10T19:08:39;97961.13;;;19.73;42.05
34983;BME280;21187;50.976;13.720;2023-05-10T19:13:41;97966.72;;;19.66;42.15
34983;BME280;21187;50.976;13.720;2023-05-10T19:18:44;97960.63;;;19.55;42.49
34983;BME280;21187;50.976;13.720;2023-05-10T19:23:47;97977.91;;;19.52;42.63
34983;BME280;21187;50.976;13.720;2023-05-10T19:28:50;97978.84;;;19.41;42.94
34983;BME280;21187;50.976;13.720;2023-05-10T19:33:52;97987.75;;;19.22;43.45
34983;BME280;21187;50.976;13.720;2023-05-10T19:38:54;97997.47;;;18.95;44.33
34983;BME280;21187;50.976;13.720;2023-05-10T19:43:56;97983.72;;;18.61;45.19
34983;BME280;21187;50.976;13.720;2023-05-10T19:48:58;97990.88;;;18.51;45.37
34983;BME280;21187;50.976;13.720;2023-05-10T19:54:00;97989.69;;;18.52;45.18
34983;BME280;21187;50.976;13.720;2023-05-10T19:59:02;97988.53;;;18.50;45.30
34983;BME280;21187;50.976;13.720;2023-05-10T20:04:04;97985.44;;;18.48;45.36
34983;BME280;21187;50.976;13.720;2023-05-10T20:09:06;97994.97;;;18.32;45.94
34983;BME280;21187;50.976;13.720;2023-05-10T20:14:09;97995.53;;;18.12;46.38
34983;BME280;21187;50.976;13.720;2023-05-10T20:19:11;97994.47;;;17.99;46.68
34983;BME280;21187;50.976;13.720;2023-05-10T20:24:14;97991.34;;;17.97;46.74
34983;BME280;21187;50.976;13.720;2023-05-10T20:29:16;97994.91;;;17.87;47.00
34983;BME280;21187;50.976;13.720;2023-05-10T20:34:18;97988.00;;;17.71;47.73
34983;BME280;21187;50.976;13.720;2023-05-10T20:39:20;97992.44;;;17.51;48.40
34983;BME280;21187;50.976;13.720;2023-05-10T20:44:22;98002.56;;;17.54;48.20
34983;BME280;21187;50.976;13.720;2023-05-10T20:49:24;97998.66;;;17.58;47.98
34983;BME280;21187;50.976;13.720;2023-05-10T20:54:25;97996.25;;;17.64;47.57
34983;BME280;21187;50.976;13.720;2023-05-10T20:59:27;97994.66;;;17.70;47.25
34983;BME280;21187;50.976;13.720;2023-05-10T21:04:29;97997.00;;;17.68;47.28
34983;BME280;21187;50.976;13.720;2023-05-10T21:09:32;98000.16;;;17.63;47.35
34983;BME280;21187;50.976;13.720;2023-05-10T21:14:35;97997.91;;;17.47;47.47
34983;BME280;21187;50.976;13.720;2023-05-10T21:19:37;97996.41;;;17.42;47.55
34983;BME280;21187;50.976;13.720;2023-05-10T21:24:39;98004.28;;;17.26;48.13
34983;BME280;21187;50.976;13.720;2023-05-10T21:29:41;98004.34;;;17.19;48.70
34983;BME280;21187;50.976;13.720;2023-05-10T21:34:43;98005.22;;;16.79;49.75
34983;BME280;21187;50.976;13.720;2023-05-10T21:39:45;98000.53;;;16.84;49.28
34983;BME280;21187;50.976;13.720;2023-05-10T21:44:47;98002.88;;;16.82;49.59
34983;BME280;21187;50.976;13.720;2023-05-10T21:49:48;98004.50;;;16.61;50.16
34983;BME280;21187;50.976;13.720;2023-05-10T21:54:51;98002.19;;;16.49;50.29
34983;BME280;21187;50.976;13.720;2023-05-10T21:59:52;98004.50;;;16.64;50.03
34983;BME280;21187;50.976;13.720;2023-05-10T22:04:54;98011.50;;;16.73;49.72
34983;BME280;21187;50.976;13.720;2023-05-10T22:09:57;98016.19;;;16.72;49.42
34983;BME280;21187;50.976;13.720;2023-05-10T22:14:59;98015.41;;;16.75;49.43
34983;BME280;21187;50.976;13.720;2023-05-10T22:20:11;98018.53;;;16.70;49.51
34983;BME280;21187;50.976;13.720;2023-05-10T22:25:13;98015.41;;;16.75;49.24
34983;BME280;21187;50.976;13.720;2023-05-10T22:30:15;98013.81;;;16.82;49.09
34983;BME280;21187;50.976;13.720;2023-05-10T22:35:18;98011.91;;;16.71;49.27
34983;BME280;21187;50.976;13.720;2023-05-10T22:40:20;98020.91;;;16.68;49.22
34983;BME280;21187;50.976;13.720;2023-05-10T22:45:22;98015.44;;;16.64;49.14
34983;BME280;21187;50.976;13.720;2023-05-10T22:50:24;98016.19;;;16.65;49.24
34983;BME280;21187;50.976;13.720;2023-05-10T22:55:26;98012.31;;;16.59;49.31
34983;BME280;21187;50.976;13.720;2023-05-10T23:00:28;98014.66;;;16.53;49.83
34983;BME280;21187;50.976;13.720;2023-05-10T23:05:30;98018.59;;;16.49;49.77
34983;BME280;21187;50.976;13.720;2023-05-10T23:10:32;98014.69;;;16.46;49.79
34983;BME280;21187;50.976;13.720;2023-05-10T23:15:34;98013.88;;;16.45;49.77
34983;BME280;21187;50.976;13.720;2023-05-10T23:20:40;98024.06;;;16.45;49.82
34983;BME280;21187;50.976;13.720;2023-05-10T23:25:43;98018.97;;;16.43;49.88
34983;BME280;21187;50.976;13.720;2023-05-10T23:30:45;98018.59;;;16.34;50.10
34983;BME280;21187;50.976;13.720;2023-05-10T23:35:47;98022.50;;;16.29;50.16
34983;BME280;21187;50.976;13.720;2023-05-10T23:40:49;98014.72;;;16.21;50.38
34983;BME280;21187;50.976;13.720;2023-05-10T23:45:55;98016.25;;;16.14;50.51
34983;BME280;21187;50.976;13.720;2023-05-10T23:50:57;98010.03;;;16.10;50.24
34983;BME280;21187;50.976;13.720;2023-05-10T23:55:59;98011.56;;;16.04;50.10
